createdAt,value
2018-03-25T00:01:37.863Z,99996.06
2018-03-25T00:04:08.837Z,99989.86
2018-03-25T00:06:40.045Z,99981.17
2018-03-25T00:09:11.298Z,99985.06
2018-03-25T00:11:43.599Z,99989.81
2018-03-25T00:14:15.654Z,99982.08
2018-03-25T00:16:48.858Z,99990.59
2018-03-25T00:19:19.976Z,99986.03
2018-03-25T00:21:50.901Z,99986.48
2018-03-25T00:24:22.246Z,99986.55
2018-03-25T00:26:53.481Z,99989.27
2018-03-25T00:29:25.135Z,99995.11
2018-03-25T00:31:58.258Z,99986.25
2018-03-25T00:34:29.385Z,99984.44
2018-03-25T00:37:00.740Z,99993.61
2018-03-25T00:39:32.344Z,99988.53
2018-03-25T00:42:07.710Z,99990.48
2018-03-25T00:44:40.449Z,99987.99
2018-03-25T00:47:12.518Z,99991.48
2018-03-25T00:49:43.695Z,99984.91
2018-03-25T00:52:15.638Z,99983.71
2018-03-25T00:55:10.379Z,99982.22
2018-03-25T00:57:41.803Z,99989.44
2018-03-25T01:00:16.567Z,99974.61
2018-03-25T01:02:47.934Z,99982.14
2018-03-25T01:05:21.121Z,99990.52
2018-03-25T01:07:54.668Z,99978.67
2018-03-25T01:10:26.742Z,99959.28
2018-03-25T01:13:02.901Z,99986.29
2018-03-25T01:15:43.369Z,99982.42
2018-03-25T01:18:15.395Z,99985.17
2018-03-25T01:20:52.942Z,99988.59
2018-03-25T01:23:24.253Z,99985.50
2018-03-25T01:25:55.781Z,99985.78
2018-03-25T01:28:27.268Z,99981.05
2018-03-25T01:30:59.229Z,99980.31
2018-03-25T01:33:30.626Z,99982.91
2018-03-25T01:36:02.239Z,99984.09
2018-03-25T01:38:33.737Z,99976.89
2018-03-25T01:41:05.661Z,99978.20
2018-03-25T01:43:36.944Z,99979.44
2018-03-25T01:46:09.070Z,99983.23
2018-03-25T01:48:40.494Z,99982.15
2018-03-25T01:53:48.983Z,99979.16
2018-03-25T01:56:20.975Z,99980.62
2018-03-25T01:58:53.870Z,99973.72
2018-03-25T02:01:26.103Z,99985.20
2018-03-25T02:03:58.046Z,99981.65
2018-03-25T02:06:29.587Z,99986.79
2018-03-25T02:09:01.196Z,99987.91
2018-03-25T02:11:33.953Z,99987.05
2018-03-25T02:14:06.073Z,99990.94
2018-03-25T02:16:37.983Z,99998.61
2018-03-25T02:19:10.171Z,99996.80
2018-03-25T02:21:42.065Z,99992.70
2018-03-25T02:24:14.484Z,99993.75
2018-03-25T02:26:46.868Z,99997.66
2018-03-25T02:29:18.223Z,99993.83
2018-03-25T02:31:50.121Z,99995.02
2018-03-25T02:34:21.496Z,100001.84
2018-03-25T02:36:52.983Z,100002.17
2018-03-25T02:39:24.628Z,100003.56
2018-03-25T02:41:55.970Z,100004.88
2018-03-25T02:44:27.399Z,100010.76
2018-03-25T02:46:59.490Z,100006.25
2018-03-25T02:49:30.684Z,100009.13
2018-03-25T02:52:02.569Z,100009.16
2018-03-25T02:54:34.508Z,100013.59
2018-03-25T02:57:06.772Z,100016.09
2018-03-25T02:59:39.382Z,100018.34
2018-03-25T03:02:11.559Z,100017.85
2018-03-25T03:04:43.147Z,100016.59
2018-03-25T03:07:15.489Z,100020.38
2018-03-25T03:09:47.112Z,100013.94
2018-03-25T03:12:18.825Z,100021.55
2018-03-25T03:14:50.147Z,100013.79
2018-03-25T03:17:21.749Z,100022.57
2018-03-25T03:19:53.712Z,100024.80
2018-03-25T03:22:25.063Z,100030.87
2018-03-25T03:25:06.409Z,100032.15
2018-03-25T03:27:37.831Z,100041.74
2018-03-25T03:30:09.399Z,100039.04
2018-03-25T03:32:41.262Z,100034.68
2018-03-25T03:35:12.587Z,100049.20
2018-03-25T03:37:44.538Z,100047.06
2018-03-25T03:40:16.842Z,100047.01
2018-03-25T03:42:48.162Z,100059.24
2018-03-25T03:45:21.960Z,100056.95
2018-03-25T03:47:54.388Z,100064.50
2018-03-25T03:50:26.854Z,100058.01
2018-03-25T03:52:59.785Z,100064.44
2018-03-25T03:55:31.942Z,100064.97
2018-03-25T03:58:03.002Z,100058.38
2018-03-25T04:00:34.760Z,100070.62
2018-03-25T04:03:10.524Z,100063.56
2018-03-25T04:05:42.242Z,100072.00
2018-03-25T04:08:14.985Z,100070.14
2018-03-25T04:10:46.566Z,100067.05
2018-03-25T04:13:19.182Z,100075.65
2018-03-25T04:15:51.256Z,100072.62
2018-03-25T04:18:23.015Z,100074.08
2018-03-25T04:20:54.840Z,100072.55
2018-03-25T04:23:27.142Z,100075.77
2018-03-25T04:25:59.250Z,100068.95
2018-03-25T04:28:31.186Z,100074.77
2018-03-25T04:31:02.990Z,100069.95
2018-03-25T04:33:35.217Z,100080.47
2018-03-25T04:36:06.898Z,100072.48
2018-03-25T04:38:39.648Z,100071.69
2018-03-25T04:41:11.743Z,100077.63
2018-03-25T04:43:43.005Z,100073.97
2018-03-25T04:46:17.458Z,100080.05
2018-03-25T04:48:48.698Z,100081.74
2018-03-25T04:51:19.913Z,100081.02
2018-03-25T04:53:51.706Z,100085.72
2018-03-25T04:56:23.698Z,100083.77
2018-03-25T04:58:56.617Z,100084.39
2018-03-25T05:01:29.608Z,100083.91
2018-03-25T05:04:01.500Z,100087.63
2018-03-25T05:06:32.318Z,100100.31
2018-03-25T05:09:02.985Z,100096.94
2018-03-25T05:11:33.422Z,100099.88
2018-03-25T05:14:04.470Z,100103.31
2018-03-25T05:16:35.824Z,100105.80
2018-03-25T05:19:07.935Z,100109.02
2018-03-25T05:21:40.438Z,100113.62
2018-03-25T05:24:11.250Z,100113.68
2018-03-25T05:26:42.321Z,100114.72
2018-03-25T05:29:15.241Z,100117.78
2018-03-25T05:31:51.389Z,100119.75
2018-03-25T05:34:22.586Z,100126.66
2018-03-25T05:36:53.712Z,100127.25
2018-03-25T05:39:25.324Z,100128.17
2018-03-25T05:41:57.236Z,100130.50
2018-03-25T05:44:28.750Z,100131.77
2018-03-25T05:47:00.781Z,100130.38
2018-03-25T05:49:32.835Z,100132.30
2018-03-25T05:52:04.725Z,100136.75
2018-03-25T05:54:36.442Z,100139.08
2018-03-25T05:57:08.528Z,100137.33
2018-03-25T05:59:40.357Z,100137.27
2018-03-25T06:02:19.398Z,100151.13
2018-03-25T06:04:51.959Z,100150.18
2018-03-25T06:07:23.510Z,100148.45
2018-03-25T06:09:55.365Z,100151.84
2018-03-25T06:12:27.004Z,100163.15
2018-03-25T06:14:57.928Z,100164.96
2018-03-25T06:17:29.602Z,100154.63
2018-03-25T06:20:01.654Z,100167.30
2018-03-25T06:22:33.857Z,100171.69
2018-03-25T06:25:05.553Z,100171.63
2018-03-25T06:27:37.275Z,100170.56
2018-03-25T06:30:13.188Z,100169.23
2018-03-25T06:32:44.639Z,100182.30
2018-03-25T06:35:18.529Z,100177.67
2018-03-25T06:37:51.669Z,100175.16
2018-03-25T06:40:23.471Z,100183.69
2018-03-25T06:43:03.502Z,100188.30
2018-03-25T06:45:42.278Z,100200.67
2018-03-25T06:48:14.436Z,100201.62
2018-03-25T06:50:47.548Z,100200.48
2018-03-25T06:53:19.628Z,100212.24
2018-03-25T06:55:52.758Z,100210.47
2018-03-25T06:58:28.183Z,100212.19
2018-03-25T07:01:00.696Z,100204.66
2018-03-25T07:03:32.957Z,100219.80
2018-03-25T07:06:05.370Z,100219.96
2018-03-25T07:08:50.603Z,100231.98
2018-03-25T07:11:24.559Z,100234.46
2018-03-25T07:13:59.051Z,100246.85
2018-03-25T07:16:32.666Z,100257.53
2018-03-25T07:19:04.429Z,100252.36
2018-03-25T07:21:42.875Z,100256.28
2018-03-25T07:24:17.624Z,100258.32
2018-03-25T07:26:49.367Z,100266.03
2018-03-25T07:29:22.136Z,100260.20
2018-03-25T07:31:54.155Z,100257.50
2018-03-25T07:34:25.487Z,100264.87
2018-03-25T07:36:57.004Z,100268.38
2018-03-25T07:39:28.718Z,100275.58
2018-03-25T07:42:00.425Z,100279.30
2018-03-25T07:44:31.749Z,100277.49
2018-03-25T07:47:03.659Z,100282.73
2018-03-25T07:49:35.212Z,100282.17
2018-03-25T07:52:07.154Z,100286.80
2018-03-25T07:54:38.873Z,100282.84
2018-03-25T07:57:10.622Z,100288.37
2018-03-25T07:59:44.213Z,100286.80
2018-03-25T08:02:18.648Z,100289.49
2018-03-25T08:07:38.971Z,100294.89
2018-03-25T08:10:10.399Z,100301.09
2018-03-25T08:12:41.539Z,100299.77
2018-03-25T08:15:17.346Z,100299.42
2018-03-25T08:17:48.989Z,100302.63
2018-03-25T08:20:27.603Z,100306.03
2018-03-25T08:22:59.221Z,100309.11
2018-03-25T08:25:30.831Z,100312.73
2018-03-25T08:28:02.139Z,100309.33
2018-03-25T08:30:35.019Z,100312.80
2018-03-25T08:33:06.108Z,100311.73
2018-03-25T08:35:37.422Z,100311.55
2018-03-25T08:38:09.139Z,100311.23
2018-03-25T08:40:40.153Z,100313.49
2018-03-25T08:43:12.954Z,100310.17
2018-03-25T08:45:44.738Z,100313.68
2018-03-25T08:48:15.974Z,100316.00
2018-03-25T08:50:49.402Z,100316.30
2018-03-25T08:53:20.416Z,100321.29
2018-03-25T08:55:52.119Z,100309.80
2018-03-25T08:58:23.398Z,100319.55
2018-03-25T09:00:54.923Z,100317.73
2018-03-25T09:03:30.751Z,100315.81
2018-03-25T09:06:01.934Z,100306.27
2018-03-25T09:08:35.008Z,100313.05
2018-03-25T09:11:06.982Z,100315.47
2018-03-25T09:13:41.091Z,100316.84
2018-03-25T09:16:15.376Z,100316.18
2018-03-25T09:18:49.563Z,100314.56
2018-03-25T09:21:22.650Z,100322.81
2018-03-25T09:23:53.728Z,100321.06
2018-03-25T09:26:25.881Z,100320.95
2018-03-25T09:28:57.075Z,100326.30
2018-03-25T09:31:29.987Z,100319.91
2018-03-25T09:34:03.228Z,100318.69
2018-03-25T09:36:41.699Z,100324.84
2018-03-25T09:39:14.590Z,100319.69
2018-03-25T09:41:45.804Z,100331.35
2018-03-25T09:44:18.537Z,100327.27
2018-03-25T09:46:51.293Z,100327.06
2018-03-25T09:49:23.687Z,100339.48
2018-03-25T09:51:54.663Z,100346.42
2018-03-25T09:54:25.880Z,100347.09
2018-03-25T09:56:57.192Z,100342.34
2018-03-25T09:59:30.941Z,100347.35
2018-03-25T10:02:05.303Z,100347.17
2018-03-25T10:04:36.567Z,100351.66
2018-03-25T10:07:31.345Z,100349.67
2018-03-25T10:10:03.396Z,100348.52
2018-03-25T10:12:35.930Z,100348.96
2018-03-25T10:15:08.878Z,100354.34
2018-03-25T10:17:44.071Z,100350.80
2018-03-25T10:20:22.031Z,100355.16
2018-03-25T10:22:53.520Z,100321.97
2018-03-25T10:25:27.227Z,100347.26
2018-03-25T10:28:06.220Z,100355.02
2018-03-25T10:30:42.279Z,100357.36
2018-03-25T10:33:15.129Z,100355.16
2018-03-25T10:35:58.065Z,100362.28
2018-03-25T10:38:31.730Z,100354.12
2018-03-25T10:41:05.208Z,100355.09
2018-03-25T10:43:36.519Z,100354.80
2018-03-25T10:46:08.665Z,100354.34
2018-03-25T10:48:40.099Z,100349.59
2018-03-25T10:51:17.310Z,100359.52
2018-03-25T10:53:48.907Z,100353.42
2018-03-25T10:56:22.275Z,100350.94
2018-03-25T10:58:58.015Z,100347.31
2018-03-25T11:01:37.518Z,100354.78
2018-03-25T11:04:08.590Z,100342.72
2018-03-25T11:06:40.716Z,100350.52
2018-03-25T11:09:13.509Z,100352.77
2018-03-25T11:11:50.801Z,100351.23
2018-03-25T11:14:22.106Z,100352.39
2018-03-25T11:17:01.700Z,100350.73
2018-03-25T11:22:14.166Z,100352.47
2018-03-25T11:24:46.414Z,100348.51
2018-03-25T11:27:19.736Z,100346.69
2018-03-25T11:29:51.126Z,100352.64
2018-03-25T11:32:23.705Z,100350.48
2018-03-25T11:34:55.022Z,100352.99
2018-03-25T11:37:27.864Z,100364.84
2018-03-25T11:39:59.013Z,100359.89
2018-03-25T11:42:32.846Z,100358.20
2018-03-25T11:45:06.770Z,100362.83
2018-03-25T11:47:38.239Z,100355.64
2018-03-25T11:50:12.929Z,100361.16
2018-03-25T11:52:45.191Z,100346.74
2018-03-25T11:55:16.147Z,100357.88
2018-03-25T11:57:47.305Z,100351.61
2018-03-25T12:00:27.700Z,100359.98
2018-03-25T12:03:00.886Z,100353.98
2018-03-25T12:05:44.574Z,100347.86
2018-03-25T12:08:30.144Z,100354.95
2018-03-25T12:11:01.795Z,100346.75
2018-03-25T12:13:37.759Z,100359.67
2018-03-25T12:16:09.530Z,100350.62
2018-03-25T12:18:40.790Z,100356.77
2018-03-25T12:21:11.730Z,100354.36
2018-03-25T12:23:42.795Z,100348.72
2018-03-25T12:26:18.325Z,100353.97
2018-03-25T12:28:53.320Z,100351.52
2018-03-25T12:32:16.914Z,100355.48
2018-03-25T12:34:49.243Z,100361.50
2018-03-25T12:37:21.411Z,100356.36
2018-03-25T12:39:52.650Z,100361.48
2018-03-25T12:42:25.580Z,100365.03
2018-03-25T12:44:58.156Z,100365.75
2018-03-25T12:47:30.328Z,100360.05
2018-03-25T12:50:02.682Z,100359.53
2018-03-25T12:52:34.892Z,100367.34
2018-03-25T12:55:08.528Z,100359.88
2018-03-25T12:57:41.593Z,100349.52
2018-03-25T13:00:18.582Z,100350.87
2018-03-25T13:02:49.847Z,100354.10
2018-03-25T13:05:20.991Z,100347.84
2018-03-25T13:07:54.582Z,100348.06
2018-03-25T13:10:34.223Z,100345.49
2018-03-25T13:13:05.999Z,100350.56
2018-03-25T13:15:38.889Z,100352.19
2018-03-25T13:18:12.188Z,100349.91
2018-03-25T13:20:46.479Z,100343.06
2018-03-25T13:23:18.599Z,100345.73
2018-03-25T13:25:51.158Z,100346.22
2018-03-25T13:28:22.794Z,100346.27
2018-03-25T13:30:59.269Z,100343.06
2018-03-25T13:33:37.376Z,100338.98
2018-03-25T13:36:09.218Z,100350.52
2018-03-25T13:38:40.959Z,100354.65
2018-03-25T13:41:14.044Z,100345.72
2018-03-25T13:43:46.309Z,100347.53
2018-03-25T13:46:19.671Z,100341.28
2018-03-25T13:48:52.285Z,100340.57
2018-03-25T13:54:39.820Z,100339.84
2018-03-25T13:57:12.424Z,100338.73
2018-03-25T13:59:44.136Z,100336.06
2018-03-25T14:02:15.678Z,100333.66
2018-03-25T14:04:47.128Z,100335.82
2018-03-25T14:07:21.638Z,100338.23
2018-03-25T14:09:54.164Z,100337.56
2018-03-25T14:12:30.099Z,100337.61
2018-03-25T14:15:03.533Z,100340.92
2018-03-25T14:17:34.956Z,100342.02
2018-03-25T14:20:08.623Z,100330.10
2018-03-25T14:22:43.307Z,100336.52
2018-03-25T14:25:16.501Z,100328.70
2018-03-25T14:27:48.431Z,100339.28
2018-03-25T14:30:21.177Z,100340.12
2018-03-25T14:32:54.493Z,100337.32
2018-03-25T14:35:26.364Z,100335.59
2018-03-25T14:37:59.853Z,100341.35
2018-03-25T14:40:41.815Z,100350.27
2018-03-25T14:43:13.208Z,100339.59
2018-03-25T14:45:44.802Z,100341.98
2018-03-25T14:48:15.695Z,100344.80
2018-03-25T14:50:46.755Z,100339.34
2018-03-25T14:53:17.817Z,100352.33
2018-03-25T14:55:54.363Z,100345.95
2018-03-25T14:58:28.438Z,100347.73
2018-03-25T15:01:01.191Z,100338.90
2018-03-25T15:03:36.098Z,100347.12
2018-03-25T15:06:09.066Z,100356.16
2018-03-25T15:08:41.738Z,100353.23
2018-03-25T15:11:13.579Z,100356.09
2018-03-25T15:13:47.425Z,100357.46
2018-03-25T15:16:20.992Z,100363.27
2018-03-25T15:18:52.726Z,100361.64
2018-03-25T15:21:23.919Z,100357.26
2018-03-25T15:23:57.335Z,100362.98
2018-03-25T15:26:29.413Z,100358.00
2018-03-25T15:29:30.228Z,100352.95
2018-03-25T15:32:02.600Z,100363.70
2018-03-25T15:34:39.813Z,100366.74
2018-03-25T15:37:12.145Z,100365.50
2018-03-25T15:39:44.412Z,100368.12
2018-03-25T15:42:15.350Z,100367.05
2018-03-25T15:44:47.342Z,100371.68
2018-03-25T15:47:18.290Z,100378.53
2018-03-25T15:49:50.518Z,100377.66
2018-03-25T15:52:21.588Z,100389.28
2018-03-25T15:54:54.107Z,100387.94
2018-03-25T15:57:25.793Z,100392.63
2018-03-25T15:59:57.809Z,100387.19
2018-03-25T16:02:29.717Z,100387.89
2018-03-25T16:05:04.968Z,100398.53
2018-03-25T16:07:36.387Z,100400.69
2018-03-25T16:10:08.009Z,100407.13
2018-03-25T16:13:02.793Z,100402.86
2018-03-25T16:15:35.198Z,100398.43
2018-03-25T16:18:06.646Z,100411.87
2018-03-25T16:20:38.098Z,100412.55
2018-03-25T16:23:18.776Z,100418.72
2018-03-25T16:25:52.583Z,100418.94
2018-03-25T16:28:30.782Z,100423.36
2018-03-25T16:31:14.366Z,100427.04
2018-03-25T16:33:45.863Z,100422.88
2018-03-25T16:36:19.728Z,100430.92
2018-03-25T16:38:53.803Z,100430.00
2018-03-25T16:41:25.257Z,100431.91
2018-03-25T16:43:57.864Z,100437.56
2018-03-25T16:46:29.304Z,100434.69
2018-03-25T16:49:01.076Z,100445.00
2018-03-25T16:51:32.220Z,100445.91
2018-03-25T16:54:10.322Z,100445.77
2018-03-25T16:56:44.784Z,100453.55
2018-03-25T16:59:16.717Z,100454.25
2018-03-25T17:01:50.985Z,100459.59
2018-03-25T17:04:37.997Z,100454.33
2018-03-25T17:07:12.420Z,100466.04
2018-03-25T17:09:44.545Z,100465.89
2018-03-25T17:12:15.918Z,100461.53
2018-03-25T17:14:48.849Z,100466.98
2018-03-25T17:17:20.675Z,100463.11
2018-03-25T17:19:51.967Z,100472.31
2018-03-25T17:22:23.264Z,100474.84
2018-03-25T17:24:55.259Z,100476.84
2018-03-25T17:27:27.110Z,100469.38
2018-03-25T17:29:58.544Z,100481.37
2018-03-25T17:32:30.657Z,100481.62
2018-03-25T17:35:02.479Z,100487.13
2018-03-25T17:37:34.345Z,100485.80
2018-03-25T17:40:06.757Z,100497.42
2018-03-25T17:42:37.986Z,100495.82
2018-03-25T17:45:09.738Z,100501.78
2018-03-25T17:47:47.704Z,100505.46
2018-03-25T17:50:22.258Z,100508.79
2018-03-25T17:52:56.259Z,100508.82
2018-03-25T17:55:34.472Z,100515.06
2018-03-25T17:58:12.866Z,100520.38
2018-03-25T18:00:46.566Z,100522.41
2018-03-25T18:03:19.377Z,100525.42
2018-03-25T18:05:52.828Z,100528.30
2018-03-25T18:08:24.112Z,100538.02
2018-03-25T18:10:54.928Z,100536.06
2018-03-25T18:13:25.934Z,100545.36
2018-03-25T18:16:02.332Z,100545.86
2018-03-25T18:18:33.665Z,100548.91
2018-03-25T18:21:04.781Z,100545.61
2018-03-25T18:23:36.051Z,100551.59
2018-03-25T18:26:07.975Z,100559.05
2018-03-25T18:28:40.652Z,100555.42
2018-03-25T18:31:12.484Z,100560.73
2018-03-25T18:33:46.280Z,100569.91
2018-03-25T18:36:17.446Z,100574.48
2018-03-25T18:38:48.244Z,100577.69
2018-03-25T18:41:19.287Z,100571.48
2018-03-25T18:46:48.285Z,100573.88
2018-03-25T18:49:19.341Z,100581.55
2018-03-25T18:51:51.817Z,100587.30
2018-03-25T18:54:22.946Z,100589.48
2018-03-25T18:56:55.071Z,100593.13
2018-03-25T18:59:29.101Z,100594.81
2018-03-25T19:02:00.385Z,100596.78
2018-03-25T19:04:31.491Z,100602.20
2018-03-25T19:07:03.828Z,100608.42
2018-03-25T19:09:34.920Z,100607.45
2018-03-25T19:12:06.573Z,100612.72
2018-03-25T19:14:38.210Z,100620.97
2018-03-25T19:17:09.443Z,100618.70
2018-03-25T19:19:41.196Z,100619.77
2018-03-25T19:22:12.447Z,100623.22
2018-03-25T19:24:45.051Z,100624.47
2018-03-25T19:27:16.681Z,100623.26
2018-03-25T19:29:48.247Z,100618.29
2018-03-25T19:32:20.369Z,100603.02
2018-03-25T19:34:51.543Z,100624.83
2018-03-25T19:37:22.909Z,100620.67
2018-03-25T19:39:54.953Z,100622.30
2018-03-25T19:42:26.923Z,100632.05
2018-03-25T19:44:58.334Z,100625.97
2018-03-25T19:47:29.525Z,100633.19
2018-03-25T19:50:01.221Z,100638.22
2018-03-25T19:52:32.277Z,100645.47
2018-03-25T19:55:03.728Z,100640.10
2018-03-25T19:57:35.493Z,100640.67
2018-03-25T20:00:15.575Z,100644.34
2018-03-25T20:02:47.068Z,100639.02
2018-03-25T20:05:19.680Z,100644.25
2018-03-25T20:10:53.724Z,100657.53
2018-03-25T20:13:24.970Z,100657.80
2018-03-25T20:16:15.763Z,100664.20
2018-03-25T20:18:52.621Z,100671.20
2018-03-25T20:21:23.458Z,100673.61
2018-03-25T20:23:55.333Z,100671.97
2018-03-25T20:26:26.210Z,100670.29
2018-03-25T20:28:58.275Z,100666.06
2018-03-25T20:31:29.508Z,100673.38
2018-03-25T20:34:00.390Z,100666.28
2018-03-25T20:36:32.175Z,100666.11
2018-03-25T20:39:03.098Z,100665.45
2018-03-25T20:41:34.493Z,100671.41
2018-03-25T20:44:05.847Z,100680.97
2018-03-25T20:46:38.309Z,100669.36
2018-03-25T20:49:09.724Z,100683.14
2018-03-25T20:51:41.042Z,100689.27
2018-03-25T20:54:12.380Z,100688.52
2018-03-25T20:56:45.222Z,100687.54
2018-03-25T20:59:16.380Z,100683.92
2018-03-25T21:01:48.784Z,100681.00
2018-03-25T21:04:19.780Z,100691.06
2018-03-25T21:06:55.578Z,100686.94
2018-03-25T21:09:28.071Z,100691.12
2018-03-25T21:12:01.626Z,100688.95
2018-03-25T21:14:34.637Z,100693.59
2018-03-25T21:17:06.568Z,100696.68
2018-03-25T21:19:38.575Z,100702.30
2018-03-25T21:22:10.733Z,100695.77
2018-03-25T21:24:41.830Z,100698.87
2018-03-25T21:27:12.766Z,100705.97
2018-03-25T21:29:44.315Z,100698.94
2018-03-25T21:32:15.501Z,100697.57
2018-03-25T21:39:48.370Z,100708.12
2018-03-25T21:45:17.537Z,100710.33
2018-03-25T21:47:49.656Z,100709.80
2018-03-25T21:50:20.648Z,100714.69
2018-03-25T21:52:51.982Z,100707.48
2018-03-25T21:55:22.660Z,100716.17
2018-03-25T21:57:53.825Z,100712.80
2018-03-25T22:00:25.794Z,100714.97
2018-03-25T22:02:57.181Z,100711.83
2018-03-25T22:05:28.492Z,100711.97
2018-03-25T22:07:59.732Z,100714.83
2018-03-25T22:10:31.226Z,100721.07
2018-03-25T22:13:02.298Z,100715.55
2018-03-25T22:15:33.677Z,100727.09
2018-03-25T22:18:06.332Z,100727.70
2018-03-25T22:20:38.365Z,100719.44
2018-03-25T22:23:11.169Z,100726.40
2018-03-25T22:25:42.087Z,100720.16
2018-03-25T22:33:47.684Z,100727.67
2018-03-25T22:36:19.058Z,100729.88
2018-03-25T22:38:50.857Z,100732.94
2018-03-25T22:41:26.237Z,100731.21
2018-03-25T22:43:57.595Z,100728.00
2018-03-25T22:46:29.656Z,100732.42
2018-03-25T22:49:01.481Z,100728.83
2018-03-25T22:51:33.155Z,100730.31
2018-03-25T22:54:04.530Z,100736.13
2018-03-25T22:56:38.235Z,100736.20
2018-03-25T22:59:11.358Z,100736.10
2018-03-25T23:01:42.387Z,100740.12
2018-03-25T23:04:13.378Z,100737.91
2018-03-25T23:06:44.486Z,100739.25
2018-03-25T23:09:16.481Z,100733.48
2018-03-25T23:11:47.503Z,100735.09
2018-03-25T23:14:20.323Z,100734.27
2018-03-25T23:16:53.328Z,100733.27
2018-03-25T23:19:25.166Z,100730.08
2018-03-25T23:21:56.442Z,100740.70
2018-03-25T23:24:27.582Z,100737.31
2018-03-25T23:26:58.591Z,100738.46
2018-03-25T23:29:29.867Z,100743.36
2018-03-25T23:32:02.086Z,100746.11
2018-03-25T23:34:33.458Z,100745.73
2018-03-25T23:37:05.938Z,100746.13
2018-03-25T23:39:37.187Z,100746.83
2018-03-25T23:42:09.327Z,100744.37
2018-03-25T23:44:41.415Z,100745.07
2018-03-25T23:47:15.046Z,100741.13
2018-03-25T23:49:47.451Z,100743.94
2018-03-25T23:52:19.721Z,100735.60
2018-03-25T23:54:50.805Z,100736.32
2018-03-25T23:57:23.785Z,100739.96
2018-03-25T23:59:55.084Z,100738.14
